createdAt,value
2016-05-11T00:00:55.293Z,56.81
2016-05-11T00:01:55.280Z,56.33
2016-05-11T00:02:55.251Z,56.81
2016-05-11T00:03:55.239Z,56.71
2016-05-11T00:04:55.225Z,57.1
2016-05-11T00:05:55.213Z,57
2016-05-11T00:06:55.200Z,57.39
2016-05-11T00:07:55.171Z,57.68
2016-05-11T00:08:55.159Z,57.48
2016-05-11T00:09:55.145Z,57.68
2016-05-11T00:10:55.116Z,57.58
2016-05-11T00:11:55.105Z,57.68
2016-05-11T00:12:55.091Z,57.58
2016-05-11T00:13:55.077Z,57.68
2016-05-11T00:14:55.128Z,57.58
2016-05-11T00:15:55.036Z,57.68
2016-05-11T00:16:55.024Z,57.68
2016-05-11T00:17:55.010Z,57.68
2016-05-11T00:18:54.998Z,57.68
2016-05-11T00:19:54.969Z,57.2
2016-05-11T00:20:54.956Z,57.58
2016-05-11T00:21:54.943Z,57.68
2016-05-11T00:22:54.930Z,57.77
2016-05-11T00:23:54.901Z,57.68
2016-05-11T00:24:54.890Z,57.77
2016-05-11T00:25:54.876Z,57.77
2016-05-11T00:26:54.863Z,57.39
2016-05-11T00:27:54.835Z,57.1
2016-05-11T00:28:54.821Z,57
2016-05-11T00:29:54.824Z,57
2016-05-11T00:30:54.795Z,57.1
2016-05-11T00:31:54.783Z,56.71
2016-05-11T00:32:54.754Z,56.52
2016-05-11T00:33:54.742Z,56.43
2016-05-11T00:34:54.728Z,56.62
2016-05-11T00:35:54.715Z,56.43
2016-05-11T00:36:54.687Z,56.81
2016-05-11T00:37:54.674Z,56.91
2016-05-11T00:38:54.661Z,56.52
2016-05-11T00:39:54.633Z,56.91
2016-05-11T00:40:54.619Z,56.59
2016-05-11T00:41:54.606Z,56.62
2016-05-11T00:42:54.593Z,56.52
2016-05-11T00:43:54.566Z,56.52
2016-05-11T00:44:54.552Z,56.62
2016-05-11T00:45:54.539Z,56.62
2016-05-11T00:46:54.527Z,56.91
2016-05-11T00:47:54.513Z,56.81
2016-05-11T00:48:54.485Z,56.33
2016-05-11T00:49:54.472Z,56.91
2016-05-11T00:50:54.459Z,56.43
2016-05-11T00:51:54.446Z,56.43
2016-05-11T00:52:54.417Z,56.59
2016-05-11T00:53:54.404Z,56.62
2016-05-11T00:54:54.391Z,56.71
2016-05-11T00:55:54.379Z,56.3
2016-05-11T00:56:54.350Z,56.71
2016-05-11T00:57:54.337Z,56.91
2016-05-11T00:58:54.324Z,56.62
2016-05-11T00:59:54.311Z,57.07
2016-05-11T01:00:54.282Z,57
2016-05-11T01:01:54.269Z,56.98
2016-05-11T01:02:54.256Z,57.17
2016-05-11T01:03:54.244Z,57.17
2016-05-11T01:04:54.215Z,56.98
2016-05-11T01:05:54.203Z,57.26
2016-05-11T01:06:54.189Z,57.45
2016-05-11T01:07:54.176Z,57.07
2016-05-11T01:08:54.147Z,57.17
2016-05-11T01:09:54.135Z,57.55
2016-05-11T01:10:54.122Z,57.55
2016-05-11T01:11:54.109Z,57.75
2016-05-11T01:12:54.081Z,57.65
2016-05-11T01:13:54.067Z,57.55
2016-05-11T01:14:54.055Z,57.65
2016-05-11T01:15:54.041Z,57.75
2016-05-11T01:16:54.014Z,57.55
2016-05-11T01:17:53.999Z,57.45
2016-05-11T01:18:53.987Z,57.65
2016-05-11T01:19:54.005Z,58.13
2016-05-11T01:20:53.946Z,57.75
2016-05-11T01:21:53.933Z,57.75
2016-05-11T01:22:53.920Z,58.13
2016-05-11T01:23:53.891Z,58.03
2016-05-11T01:24:53.878Z,57.84
2016-05-11T01:25:53.866Z,57.84
2016-05-11T01:26:53.852Z,58.03
2016-05-11T01:27:53.824Z,58.7
2016-05-11T01:28:53.812Z,58.51
2016-05-11T01:29:53.798Z,58.51
2016-05-11T01:30:53.784Z,58.29
2016-05-11T01:31:53.756Z,58.29
2016-05-11T01:32:53.744Z,58.42
2016-05-11T01:33:53.731Z,58.39
2016-05-11T01:34:53.703Z,58.39
2016-05-11T01:35:53.689Z,58.58
2016-05-11T01:36:53.676Z,58.48
2016-05-11T01:37:53.663Z,58.48
2016-05-11T01:38:53.635Z,58.29
2016-05-11T01:39:53.622Z,58.77
2016-05-11T01:40:53.608Z,58.67
2016-05-11T01:41:53.597Z,59.25
2016-05-11T01:42:53.567Z,58.96
2016-05-11T01:43:53.555Z,58.87
2016-05-11T01:44:53.542Z,59.16
2016-05-11T01:45:53.513Z,58.96
2016-05-11T01:46:53.499Z,59.25
2016-05-11T01:47:53.502Z,59.25
2016-05-11T01:48:53.459Z,59.73
2016-05-11T01:49:53.446Z,59.64
2016-05-11T01:50:53.433Z,59.83
2016-05-11T01:51:53.419Z,59.92
2016-05-11T01:52:53.391Z,59.64
2016-05-11T01:53:53.379Z,60.18
2016-05-11T01:54:53.365Z,60.6
2016-05-11T01:55:53.337Z,60.18
2016-05-11T01:56:53.324Z,60.21
2016-05-11T01:57:53.311Z,60.47
2016-05-11T01:58:53.298Z,60.28
2016-05-11T01:59:53.270Z,60.85
2016-05-11T02:00:53.303Z,60.75
2016-05-11T02:01:53.243Z,60.57
2016-05-11T02:02:53.214Z,60.47
2016-05-11T02:03:53.202Z,60.66
2016-05-11T02:04:53.190Z,60.28
2016-05-11T02:05:53.176Z,60.66
2016-05-11T02:06:53.147Z,60.57
2016-05-11T02:07:53.134Z,61.14
2016-05-11T02:08:53.106Z,60.95
2016-05-11T02:09:53.092Z,61.14
2016-05-11T02:10:53.080Z,60.95
2016-05-11T02:11:53.052Z,61.14
2016-05-11T02:12:53.039Z,61.52
2016-05-11T02:13:53.025Z,61.24
2016-05-11T02:14:53.013Z,61.14
2016-05-11T02:15:52.984Z,61.33
2016-05-11T02:16:52.972Z,61.14
2016-05-11T02:17:52.958Z,61.14
2016-05-11T02:18:52.930Z,61.49
2016-05-11T02:19:52.917Z,61.33
2016-05-11T02:20:52.904Z,61.88
2016-05-11T02:21:52.875Z,61.81
2016-05-11T02:22:52.863Z,61.98
2016-05-11T02:23:52.849Z,61.78
2016-05-11T02:24:52.821Z,61.59
2016-05-11T02:25:52.807Z,61.98
2016-05-11T02:26:52.795Z,61.88
2016-05-11T02:27:52.766Z,62.16
2016-05-11T02:28:52.754Z,62.07
2016-05-11T02:29:52.740Z,62.16
2016-05-11T02:30:52.712Z,61.88
2016-05-11T02:31:52.699Z,62.55
2016-05-11T02:32:52.687Z,62.36
2016-05-11T02:33:52.657Z,62.45
2016-05-11T02:34:52.645Z,62.36
2016-05-11T02:35:52.631Z,62.45
2016-05-11T02:36:52.603Z,62.36
2016-05-11T02:37:52.590Z,62.55
2016-05-11T02:38:52.593Z,62.65
2016-05-11T02:39:52.549Z,62.45
2016-05-11T02:40:52.536Z,62.65
2016-05-11T02:41:52.523Z,62.36
2016-05-11T02:42:52.494Z,62.36
2016-05-11T02:43:52.481Z,62.36
2016-05-11T02:44:52.452Z,62.55
2016-05-11T02:45:52.440Z,62.55
2016-05-11T02:46:52.427Z,62.84
2016-05-11T02:47:52.414Z,63.32
2016-05-11T02:48:52.386Z,63.09
2016-05-11T02:49:52.372Z,63
2016-05-11T02:50:52.344Z,62.9
2016-05-11T02:51:52.331Z,63.19
2016-05-11T02:52:52.318Z,63
2016-05-11T02:53:52.290Z,63.51
2016-05-11T02:54:52.277Z,63.48
2016-05-11T02:55:52.263Z,63.67
2016-05-11T02:56:52.235Z,63.38
2016-05-11T02:57:52.221Z,63.19
2016-05-11T02:58:52.194Z,63.09
2016-05-11T02:59:52.182Z,63.86
2016-05-11T03:00:52.168Z,63.67
2016-05-11T03:01:52.154Z,63.76
2016-05-11T03:02:52.126Z,63.67
2016-05-11T03:03:52.112Z,63.67
2016-05-11T03:04:52.084Z,63.67
2016-05-11T03:05:52.073Z,63.19
2016-05-11T03:06:52.059Z,64.05
2016-05-11T03:07:52.031Z,64.05
2016-05-11T03:08:52.017Z,64.05
2016-05-11T03:09:52.004Z,64.05
2016-05-11T03:10:51.975Z,63.76
2016-05-11T03:11:51.963Z,63.38
2016-05-11T03:12:51.950Z,63.48
2016-05-11T03:13:51.922Z,64.05
2016-05-11T03:14:51.908Z,63.19
2016-05-11T03:15:51.880Z,63.96
2016-05-11T03:16:51.867Z,63.76
2016-05-11T03:17:51.855Z,63.96
2016-05-11T03:18:51.825Z,63.86
2016-05-11T03:19:51.813Z,63.76
2016-05-11T03:20:51.799Z,64.34
2016-05-11T03:21:51.771Z,64.25
2016-05-11T03:22:51.758Z,63.76
2016-05-11T03:23:51.745Z,63.86
2016-05-11T03:24:51.717Z,63.86
2016-05-11T03:25:51.704Z,63.67
2016-05-11T03:26:51.691Z,63.76
2016-05-11T03:27:51.663Z,63.86
2016-05-11T03:28:51.649Z,63.86
2016-05-11T03:29:51.620Z,63.67
2016-05-11T03:30:51.614Z,63.67
2016-05-11T03:31:51.641Z,63.67
2016-05-11T03:32:51.651Z,63.67
2016-05-11T03:33:51.679Z,63.76
2016-05-11T03:34:51.705Z,63.48
2016-05-11T03:35:51.712Z,63.57
2016-05-11T03:36:51.713Z,63.96
2016-05-11T03:37:51.699Z,63.83
2016-05-11T03:38:51.700Z,63.96
2016-05-11T03:39:51.702Z,64.25
2016-05-11T03:40:51.686Z,64.43
2016-05-11T03:41:51.678Z,64.5
2016-05-11T03:42:51.669Z,63.92
2016-05-11T03:43:51.646Z,64.05
2016-05-11T03:44:51.638Z,64.25
2016-05-11T03:45:51.630Z,64.02
2016-05-11T03:46:51.604Z,64.22
2016-05-11T03:47:51.592Z,64.25
2016-05-11T03:48:51.565Z,64.15
2016-05-11T03:49:51.554Z,64.22
2016-05-11T03:50:51.528Z,64.22
2016-05-11T03:51:51.514Z,64.22
2016-05-11T03:52:51.503Z,64.22
2016-05-11T03:53:51.474Z,63.96
2016-05-11T03:54:51.462Z,64.05
2016-05-11T03:55:51.449Z,64.12
2016-05-11T03:56:51.421Z,64.25
2016-05-11T03:57:51.408Z,63.96
2016-05-11T03:58:51.396Z,64.12
2016-05-11T03:59:51.367Z,64.25
2016-05-11T04:00:51.356Z,64.15
2016-05-11T04:01:51.326Z,63.96
2016-05-11T04:02:51.314Z,63.96
2016-05-11T04:03:51.301Z,63.64
2016-05-11T04:04:51.288Z,63.57
2016-05-11T04:05:51.258Z,63.48
2016-05-11T04:06:51.246Z,63.67
2016-05-11T04:07:51.234Z,63.67
2016-05-11T04:08:51.205Z,63.86
2016-05-11T04:09:51.177Z,63.76
2016-05-11T04:10:51.179Z,63.57
2016-05-11T04:11:51.149Z,63.96
2016-05-11T04:12:51.137Z,63.86
2016-05-11T04:13:51.109Z,64.15
2016-05-11T04:14:51.096Z,63.86
2016-05-11T04:15:51.068Z,63.48
2016-05-11T04:16:51.054Z,63.76
2016-05-11T04:17:51.041Z,63.67
2016-05-11T04:18:51.013Z,63.76
2016-05-11T04:19:50.999Z,63.96
2016-05-11T04:20:50.987Z,63.67
2016-05-11T04:21:50.959Z,63.19
2016-05-11T04:22:50.945Z,63.38
2016-05-11T04:23:50.917Z,63.48
2016-05-11T04:24:50.904Z,63.57
2016-05-11T04:25:50.891Z,63.57
2016-05-11T04:26:50.863Z,63.48
2016-05-11T04:27:50.850Z,63.57
2016-05-11T04:28:50.837Z,63.38
2016-05-11T04:29:50.808Z,63.29
2016-05-11T04:30:50.795Z,63.19
2016-05-11T04:31:50.781Z,63
2016-05-11T04:32:50.754Z,63.19
2016-05-11T04:33:50.741Z,63.38
2016-05-11T04:34:50.727Z,63.29
2016-05-11T04:35:50.699Z,63.29
2016-05-11T04:36:50.686Z,63
2016-05-11T04:37:50.672Z,62.9
2016-05-11T04:38:50.645Z,62.81
2016-05-11T04:39:50.632Z,62.71
2016-05-11T04:40:50.619Z,62.81
2016-05-11T04:41:50.591Z,62.62
2016-05-11T04:42:50.577Z,62.71
2016-05-11T04:43:50.564Z,62.52
2016-05-11T04:44:50.536Z,62.52
2016-05-11T04:45:50.523Z,62.36
2016-05-11T04:46:50.510Z,62.55
2016-05-11T04:47:50.482Z,62.65
2016-05-11T04:48:50.468Z,62.26
2016-05-11T04:49:50.455Z,62.55
2016-05-11T04:50:50.427Z,62.65
2016-05-11T04:51:50.414Z,62.45
2016-05-11T04:52:50.401Z,62.84
2016-05-11T04:53:50.373Z,63.12
2016-05-11T04:54:50.359Z,63.32
2016-05-11T04:55:50.347Z,63.32
2016-05-11T04:56:50.317Z,63.03
2016-05-11T04:57:50.306Z,63.22
2016-05-11T04:58:50.308Z,63.32
2016-05-11T04:59:50.279Z,63.03
2016-05-11T05:00:50.250Z,62.93
2016-05-11T05:01:50.238Z,63.12
2016-05-11T05:02:50.209Z,63.42
2016-05-11T05:03:50.197Z,63.32
2016-05-11T05:04:50.184Z,62.93
2016-05-11T05:05:50.170Z,62.65
2016-05-11T05:06:50.142Z,62.74
2016-05-11T05:07:50.128Z,62.45
2016-05-11T05:08:50.116Z,62.74
2016-05-11T05:09:50.088Z,62.65
2016-05-11T05:10:50.075Z,62.65
2016-05-11T05:11:50.061Z,62.55
2016-05-11T05:12:50.033Z,62.45
2016-05-11T05:13:50.020Z,62.45
2016-05-11T05:14:50.007Z,62.65
2016-05-11T05:15:50.541Z,63.03
2016-05-11T05:16:49.966Z,63.32
2016-05-11T05:17:49.952Z,63.12
2016-05-11T05:18:50.002Z,63.22
2016-05-11T05:19:49.911Z,63.22
2016-05-11T05:20:49.898Z,63.03
2016-05-11T05:21:49.885Z,63.12
2016-05-11T05:22:49.857Z,62.93
2016-05-11T05:23:49.843Z,63.22
2016-05-11T05:24:49.832Z,63.22
2016-05-11T05:25:49.801Z,63.12
2016-05-11T05:26:49.790Z,63.12
2016-05-11T05:27:49.776Z,63.03
2016-05-11T05:28:49.748Z,62.93
2016-05-11T05:29:49.734Z,63.22
2016-05-11T05:30:49.723Z,63.12
2016-05-11T05:31:49.709Z,63.12
2016-05-11T05:32:49.681Z,63.22
2016-05-11T05:33:49.668Z,63.42
2016-05-11T05:34:49.655Z,63.42
2016-05-11T05:35:49.626Z,62.93
2016-05-11T05:36:49.613Z,62.65
2016-05-11T05:37:49.600Z,62.74
2016-05-11T05:38:49.587Z,62.45
2016-05-11T05:39:49.559Z,62.36
2016-05-11T05:40:49.546Z,62.65
2016-05-11T05:41:49.533Z,62.77
2016-05-11T05:42:49.505Z,62.39
2016-05-11T05:43:49.491Z,62.39
2016-05-11T05:44:49.541Z,61.91
2016-05-11T05:45:49.450Z,61.91
2016-05-11T05:46:49.437Z,61.33
2016-05-11T05:47:49.424Z,61.14
2016-05-11T05:48:49.411Z,61.27
2016-05-11T05:49:49.383Z,61.14
2016-05-11T05:50:49.369Z,60.69
2016-05-11T05:51:49.357Z,60.4
2016-05-11T05:52:49.343Z,60.4
2016-05-11T05:53:49.331Z,60.6
2016-05-11T05:54:49.302Z,60.4
2016-05-11T05:55:49.289Z,59.64
2016-05-11T05:56:49.276Z,60.11
2016-05-11T05:57:49.263Z,59.95
2016-05-11T05:58:49.250Z,59.28
2016-05-11T05:59:49.222Z,58.8
2016-05-11T06:00:49.678Z,58.61
2016-05-11T06:01:49.195Z,58.42
2016-05-11T06:02:49.184Z,58.42
2016-05-11T06:03:49.170Z,58.15
2016-05-11T06:04:49.157Z,57.58
2016-05-11T06:05:49.128Z,57.58
2016-05-11T06:06:49.131Z,57.29
2016-05-11T06:07:49.103Z,56.91
2016-05-11T06:08:49.089Z,56.52
2016-05-11T06:09:49.078Z,56.33
2016-05-11T06:10:49.064Z,55.88
2016-05-11T06:11:49.050Z,55.4
2016-05-11T06:12:49.039Z,55.88
2016-05-11T06:13:49.025Z,55.49
2016-05-11T06:14:49.013Z,54.85
2016-05-11T06:15:48.999Z,54.75
2016-05-11T06:16:48.986Z,54.36
2016-05-11T06:17:48.974Z,53.98
2016-05-11T06:18:48.960Z,53.21
2016-05-11T06:19:51.042Z,52.83
2016-05-11T06:20:49.762Z,52.75
2016-05-11T06:21:52.749Z,52.37
2016-05-11T06:22:48.910Z,51.6
2016-05-11T06:23:49.833Z,51.21
2016-05-11T06:24:48.882Z,51.05
2016-05-11T06:25:49.463Z,51.24
2016-05-11T06:26:48.857Z,50.47
2016-05-11T06:27:50.360Z,49.82
2016-05-11T06:28:48.832Z,49.63
2016-05-11T06:29:48.818Z,49.63
2016-05-11T06:30:48.821Z,49.34
2016-05-11T06:31:48.792Z,49.24
2016-05-11T06:32:48.780Z,48.86
2016-05-11T06:33:48.782Z,49.15
2016-05-11T06:34:48.770Z,49.15
2016-05-11T06:35:48.757Z,48.86
2016-05-11T06:36:48.743Z,48.76
2016-05-11T06:37:48.731Z,48.95
2016-05-11T06:38:48.717Z,48.69
2016-05-11T06:39:48.705Z,49.07
2016-05-11T06:40:48.692Z,47.92
2016-05-11T06:41:48.678Z,48.3
2016-05-11T06:42:48.666Z,48.21
2016-05-11T06:43:48.652Z,47.92
2016-05-11T06:44:48.639Z,47.72
2016-05-11T06:45:48.940Z,48.11
2016-05-11T06:46:48.614Z,47.82
2016-05-11T06:47:48.602Z,47.44
2016-05-11T06:48:48.588Z,47.75
2016-05-11T06:49:48.575Z,47.17
2016-05-11T06:50:48.578Z,46.97
2016-05-11T06:51:48.565Z,46.49
2016-05-11T06:52:48.552Z,46.3
2016-05-11T06:53:48.539Z,46.49
2016-05-11T06:54:48.526Z,46.69
2016-05-11T06:55:48.513Z,46.97
2016-05-11T06:56:48.501Z,46.59
2016-05-11T06:57:48.487Z,46.59
2016-05-11T06:58:48.474Z,46.59
2016-05-11T06:59:48.462Z,46.3
2016-05-11T07:00:48.465Z,46.61
2016-05-11T07:01:48.452Z,46.13
2016-05-11T07:02:48.437Z,46.51
2016-05-11T07:03:48.426Z,46.42
2016-05-11T07:04:48.413Z,45.75
2016-05-11T07:05:48.400Z,45.65
2016-05-11T07:06:48.403Z,45.48
2016-05-11T07:07:48.389Z,45.57
2016-05-11T07:08:48.376Z,45.48
2016-05-11T07:09:48.364Z,45.38
2016-05-11T07:10:48.350Z,45.57
2016-05-11T07:11:48.353Z,45.28
2016-05-11T07:12:48.339Z,44.9
2016-05-11T07:13:48.328Z,44.24
2016-05-11T07:14:48.330Z,43.95
2016-05-11T07:15:48.317Z,43.47
2016-05-11T07:16:48.304Z,43.18
2016-05-11T07:17:48.291Z,43.08
2016-05-11T07:18:48.278Z,42.41
2016-05-11T07:19:48.265Z,42.04
2016-05-11T07:20:48.268Z,42.04
2016-05-11T07:21:48.255Z,41
2016-05-11T07:22:48.241Z,40.23
2016-05-11T07:23:48.229Z,39.84
2016-05-11T07:24:48.232Z,39.95
2016-05-11T07:25:48.218Z,39.47
2016-05-11T07:26:48.207Z,39.86
2016-05-11T07:27:48.210Z,39.28
2016-05-11T07:28:48.196Z,38.99
2016-05-11T07:29:48.182Z,38.99
2016-05-11T07:30:48.185Z,39.11
2016-05-11T07:31:48.173Z,39.09
2016-05-11T07:32:48.159Z,38.91
2016-05-11T07:33:48.162Z,38.71
2016-05-11T07:34:48.165Z,38.53
2016-05-11T07:35:48.137Z,38.53
2016-05-11T07:36:48.139Z,38.23
2016-05-11T07:37:48.126Z,38.23
2016-05-11T07:38:48.114Z,37.75
2016-05-11T07:39:48.117Z,37.87
2016-05-11T07:40:48.103Z,37.48
2016-05-11T07:41:48.090Z,37.19
2016-05-11T07:42:48.093Z,37.19
2016-05-11T07:43:48.080Z,36.82
2016-05-11T07:44:48.067Z,36.62
2016-05-11T07:45:48.117Z,36.62
2016-05-11T07:46:48.057Z,36.62
2016-05-11T07:47:48.059Z,36.33
2016-05-11T07:48:48.047Z,36.32
2016-05-11T07:49:48.033Z,36.33
2016-05-11T07:50:48.036Z,36.33
2016-05-11T07:51:48.023Z,35.66
2016-05-11T07:52:48.026Z,35.46
2016-05-11T07:53:48.014Z,35.56
2016-05-11T07:54:48.000Z,35.09
2016-05-11T07:55:48.003Z,35.19
2016-05-11T07:56:47.990Z,34.8
2016-05-11T07:57:47.992Z,34.61
2016-05-11T07:58:47.980Z,34.12
2016-05-11T07:59:47.967Z,34.12
2016-05-11T08:00:47.985Z,34.43
2016-05-11T08:01:47.957Z,34.12
2016-05-11T08:02:47.959Z,33.92
2016-05-11T08:03:47.946Z,33.92
2016-05-11T08:04:47.949Z,33.75
2016-05-11T08:05:47.937Z,33.84
2016-05-11T08:06:47.939Z,33.36
2016-05-11T08:07:47.926Z,33.07
2016-05-11T08:08:47.928Z,33.18
2016-05-11T08:09:47.915Z,33.09
2016-05-11T08:10:47.903Z,32.7
2016-05-11T08:11:47.906Z,32.7
2016-05-11T08:12:47.908Z,32.41
2016-05-11T08:13:47.895Z,32.41
2016-05-11T08:14:47.882Z,32.02
2016-05-11T08:15:47.884Z,32.04
2016-05-11T08:16:47.872Z,31.84
2016-05-11T08:17:47.875Z,31.65
2016-05-11T08:18:47.861Z,31.16
2016-05-11T08:19:47.864Z,31.08
2016-05-11T08:20:47.852Z,30.88
2016-05-11T08:21:47.854Z,30.88
2016-05-11T08:22:47.841Z,30.88
2016-05-11T08:23:47.844Z,30.12
2016-05-11T08:24:47.847Z,29.74
2016-05-11T08:25:47.833Z,29.54
2016-05-11T08:26:47.836Z,29.74
2016-05-11T08:27:47.824Z,29.54
2016-05-11T08:28:47.826Z,28.68
2016-05-11T08:29:47.829Z,28.88
2016-05-11T08:30:47.816Z,28.78
2016-05-11T08:31:47.818Z,28.5
2016-05-11T08:32:47.805Z,28.11
2016-05-11T08:33:47.808Z,27.82
2016-05-11T08:34:47.810Z,27.82
2016-05-11T08:35:47.798Z,27.53
2016-05-11T08:36:47.801Z,27.33
2016-05-11T08:37:47.818Z,27.14
2016-05-11T08:38:47.790Z,26.57
2016-05-11T08:39:47.778Z,27.05
2016-05-11T08:40:47.781Z,26.37
2016-05-11T08:41:47.783Z,26.29
2016-05-11T08:42:47.770Z,25.8
2016-05-11T08:43:47.773Z,25.9
2016-05-11T08:44:47.775Z,25.9
2016-05-11T08:45:48.028Z,25.9
2016-05-11T08:46:47.765Z,25.7
2016-05-11T08:47:47.767Z,25.6
2016-05-11T08:48:47.756Z,25.9
2016-05-11T08:49:47.758Z,25.7
2016-05-11T08:50:47.760Z,25.31
2016-05-11T08:51:47.747Z,25.21
2016-05-11T08:52:47.750Z,25.51
2016-05-11T08:53:47.752Z,25.13
2016-05-11T08:54:47.739Z,24.65
2016-05-11T08:55:47.758Z,24.74
2016-05-11T08:56:47.745Z,24.45
2016-05-11T08:57:47.732Z,24.45
2016-05-11T08:58:47.735Z,24.74
2016-05-11T08:59:47.738Z,24.35
2016-05-11T09:00:47.740Z,24.45
2016-05-11T09:01:47.758Z,24.74
2016-05-11T09:02:47.730Z,24.76
2016-05-11T09:03:47.733Z,24.45
2016-05-11T09:04:47.720Z,24.16
2016-05-11T09:05:47.737Z,24.06
2016-05-11T09:06:47.726Z,24.27
2016-05-11T09:07:47.712Z,24.17
2016-05-11T09:08:47.776Z,24.27
2016-05-11T09:09:47.718Z,23.97
2016-05-11T09:10:47.720Z,24.27
2016-05-11T09:11:47.707Z,24.46
2016-05-11T09:12:47.710Z,24.35
2016-05-11T09:13:47.712Z,24.56
2016-05-11T09:14:47.778Z,24.37
2016-05-11T09:15:47.702Z,24.66
2016-05-11T09:16:47.720Z,24.27
2016-05-11T09:17:47.708Z,24.18
2016-05-11T09:18:47.710Z,24.27
2016-05-11T09:19:47.698Z,24.28
2016-05-11T09:20:47.700Z,24.18
2016-05-11T09:21:47.703Z,24.46
2016-05-11T09:22:47.706Z,24.27
2016-05-11T09:23:47.692Z,23.97
2016-05-11T09:24:47.695Z,23.69
2016-05-11T09:25:47.698Z,23.29
2016-05-11T09:26:47.685Z,23.58
2016-05-11T09:27:47.688Z,23.29
2016-05-11T09:28:47.691Z,23.11
2016-05-11T09:29:47.693Z,23.01
2016-05-11T09:30:47.696Z,22.62
2016-05-11T09:31:47.683Z,22.34
2016-05-11T09:32:47.685Z,22.34
2016-05-11T09:33:47.688Z,22.73
2016-05-11T09:34:47.676Z,22.44
2016-05-11T09:35:47.678Z,22.05
2016-05-11T09:36:47.681Z,22.44
2016-05-11T09:37:47.683Z,22.34
2016-05-11T09:38:47.671Z,22.14
2016-05-11T09:39:47.674Z,22.14
2016-05-11T09:40:47.676Z,22.14
2016-05-11T09:41:47.679Z,21.95
2016-05-11T09:42:47.681Z,22.06
2016-05-11T09:43:47.668Z,22.16
2016-05-11T09:44:47.670Z,21.97
2016-05-11T09:45:47.673Z,22.45
2016-05-11T09:46:47.676Z,22.94
2016-05-11T09:47:47.851Z,23.02
2016-05-11T09:48:47.681Z,23.12
2016-05-11T09:49:47.669Z,22.94
2016-05-11T09:50:47.672Z,23.02
2016-05-11T09:51:47.675Z,23.13
2016-05-11T09:52:47.661Z,23.41
2016-05-11T09:53:47.664Z,23.41
2016-05-11T09:54:47.666Z,23.71
2016-05-11T09:55:47.669Z,23.22
2016-05-11T09:56:47.672Z,23.51
2016-05-11T09:57:47.659Z,23.22
2016-05-11T09:58:47.677Z,23.22
2016-05-11T09:59:47.661Z,23.32
2016-05-11T10:00:47.664Z,23.22
2016-05-11T10:01:47.666Z,23.41
2016-05-11T10:02:47.669Z,23.41
2016-05-11T10:03:47.657Z,23.51
2016-05-11T10:04:47.659Z,23.41
2016-05-11T10:05:47.663Z,23.32
2016-05-11T10:06:47.649Z,23.22
2016-05-11T10:07:47.652Z,23.32
2016-05-11T10:08:47.655Z,23.32
2016-05-11T10:09:47.657Z,23.22
2016-05-11T10:10:47.660Z,23.32
2016-05-11T10:11:47.648Z,23.71
2016-05-11T10:12:47.650Z,24.19
2016-05-11T10:13:47.653Z,24.18
2016-05-11T10:14:47.656Z,24.08
2016-05-11T10:15:47.642Z,24.28
2016-05-11T10:16:47.645Z,24.28
2016-05-11T10:17:47.648Z,24.28
2016-05-11T10:18:47.650Z,23.99
2016-05-11T10:19:47.638Z,24.1
2016-05-11T10:20:47.640Z,24.28
2016-05-11T10:21:47.643Z,24.18
2016-05-11T10:22:47.645Z,24.28
2016-05-11T10:23:47.679Z,24.38
2016-05-11T10:24:47.651Z,24.28
2016-05-11T10:25:47.638Z,24.08
2016-05-11T10:26:47.656Z,23.89
2016-05-11T10:27:47.644Z,23.4
2016-05-11T10:28:47.630Z,23.8
2016-05-11T10:29:47.633Z,24.29
2016-05-11T10:30:47.730Z,24.28
2016-05-11T10:32:43.486Z,24.08
2016-05-11T10:32:55.628Z,24.66
2016-05-11T10:33:55.616Z,24.76
2016-05-11T10:34:55.618Z,24.37
2016-05-11T10:35:55.618Z,24.56
2016-05-11T10:36:55.606Z,24.56
2016-05-11T10:37:55.607Z,24.56
2016-05-11T10:38:55.674Z,24.45
2016-05-11T10:39:55.598Z,24.65
2016-05-11T10:40:55.601Z,24.37
2016-05-11T10:41:55.604Z,24.27
2016-05-11T10:42:55.607Z,24.46
2016-05-11T10:43:55.593Z,24.56
2016-05-11T10:44:55.579Z,24.27
2016-05-11T10:45:55.582Z,24.28
2016-05-11T10:46:55.585Z,24.28
2016-05-11T10:47:55.587Z,24.28
2016-05-11T10:48:56.812Z,24.18
2016-05-11T10:49:55.593Z,23.8
2016-05-11T10:50:55.659Z,23.41
2016-05-11T10:51:55.598Z,23.41
2016-05-11T10:52:55.617Z,23.32
2016-05-11T10:53:55.573Z,23.03
2016-05-11T10:54:55.576Z,22.94
2016-05-11T10:55:55.578Z,22.84
2016-05-11T10:56:55.565Z,23.02
2016-05-11T10:57:55.567Z,22.45
2016-05-11T10:58:55.570Z,22.25
2016-05-11T10:59:55.573Z,22.25
2016-05-11T11:00:55.576Z,22.92
2016-05-11T11:01:55.563Z,23.12
2016-05-11T11:02:55.566Z,23.12
2016-05-11T11:03:55.569Z,23.12
2016-05-11T11:04:55.556Z,23.02
2016-05-11T11:05:55.558Z,23.32
2016-05-11T11:06:55.577Z,23.41
2016-05-11T11:07:55.564Z,23.32
2016-05-11T11:08:55.566Z,23.21
2016-05-11T11:09:55.569Z,23.21
2016-05-11T11:10:55.556Z,23.69
2016-05-11T11:11:55.560Z,23.69
2016-05-11T11:12:55.546Z,23.69
2016-05-11T11:13:55.548Z,23.22
2016-05-11T11:14:55.552Z,23.32
2016-05-11T11:15:55.554Z,23.41
2016-05-11T11:16:55.556Z,23.41
2016-05-11T11:17:55.543Z,23.51
2016-05-11T11:18:55.547Z,23.22
2016-05-11T11:19:55.549Z,23.02
2016-05-11T11:20:55.536Z,22.73
2016-05-11T11:21:55.555Z,22.35
2016-05-11T11:22:55.542Z,22.06
2016-05-11T11:23:55.545Z,22.25
2016-05-11T11:24:55.547Z,22.63
2016-05-11T11:25:55.550Z,22.73
2016-05-11T11:26:55.537Z,22.73
2016-05-11T11:27:55.539Z,22.73
2016-05-11T11:28:55.558Z,22.34
2016-05-11T11:29:55.545Z,22.05
2016-05-11T11:30:55.547Z,21.85
2016-05-11T11:31:55.534Z,21.96
2016-05-11T11:32:55.537Z,22.06
2016-05-11T11:33:55.540Z,22.05
2016-05-11T11:34:55.542Z,22.05
2016-05-11T11:35:55.545Z,22.05
2016-05-11T11:36:55.532Z,21.95
2016-05-11T11:37:55.535Z,21.95
2016-05-11T11:38:55.538Z,22.05
2016-05-11T11:39:55.540Z,22.14
2016-05-11T11:40:55.527Z,21.96
2016-05-11T11:41:55.530Z,21.85
2016-05-11T11:42:55.549Z,21.75
2016-05-11T11:43:55.535Z,21.67
2016-05-11T11:44:55.538Z,21.37
2016-05-11T11:45:55.760Z,21.37
2016-05-11T11:46:55.529Z,21.18
2016-05-11T11:47:55.531Z,21.19
2016-05-11T11:48:55.534Z,21.67
2016-05-11T11:49:55.537Z,21.56
2016-05-11T11:50:55.539Z,21.36
2016-05-11T11:51:55.525Z,21.46
2016-05-11T11:52:55.529Z,21.66
2016-05-11T11:53:55.531Z,21.95
2016-05-11T11:54:55.534Z,21.75
2016-05-11T11:55:55.520Z,21.75
2016-05-11T11:56:55.587Z,21.66
2016-05-11T11:57:55.542Z,21.46
2016-05-11T11:58:55.528Z,21.85
2016-05-11T11:59:58.110Z,21.45
2016-05-11T12:00:55.520Z,21.66
2016-05-11T12:01:55.522Z,21.17
2016-05-11T12:02:55.524Z,21.17
2016-05-11T12:03:55.527Z,21.17
2016-05-11T12:04:55.530Z,21.26
2016-05-11T12:05:55.516Z,21.17
2016-05-11T12:06:55.519Z,21.46
2016-05-11T12:07:55.522Z,21.17
2016-05-11T12:08:55.525Z,20.78
2016-05-11T12:09:55.527Z,20.58
2016-05-11T12:10:55.514Z,20.87
2016-05-11T12:11:55.517Z,20.59
2016-05-11T12:12:55.614Z,20.69
2016-05-11T12:13:55.522Z,20.5
2016-05-11T12:14:55.525Z,20.59
2016-05-11T12:15:55.559Z,20.48
2016-05-11T12:16:55.609Z,20.69
2016-05-11T12:17:55.518Z,20.58
2016-05-11T12:18:55.520Z,20.4
2016-05-11T12:19:55.523Z,20.4
2016-05-11T12:20:55.526Z,20.4
2016-05-11T12:21:55.529Z,20.48
2016-05-11T12:22:55.531Z,20.39
2016-05-11T12:23:55.518Z,20.39
2016-05-11T12:24:55.521Z,20.39
2016-05-11T12:25:55.523Z,20.09
2016-05-11T12:26:55.526Z,20.29
2016-05-11T12:27:55.529Z,20.48
2016-05-11T12:28:55.517Z,20.48
2016-05-11T12:29:55.519Z,20.29
2016-05-11T12:30:55.522Z,20.09
2016-05-11T12:31:55.524Z,20
2016-05-11T12:32:55.527Z,20.09
2016-05-11T12:33:55.514Z,19.89
2016-05-11T12:34:55.516Z,20.28
2016-05-11T12:35:55.519Z,20.48
2016-05-11T12:36:55.522Z,20
2016-05-11T12:37:55.550Z,20
2016-05-11T12:38:55.616Z,20.29
2016-05-11T12:39:55.634Z,20.09
2016-05-11T12:40:55.684Z,20.09
2016-05-11T12:41:55.734Z,19.41
2016-05-11T12:42:55.767Z,19.62
2016-05-11T12:43:55.787Z,19.8
2016-05-11T12:44:55.791Z,19.52
2016-05-11T12:45:55.811Z,19.32
2016-05-11T12:46:55.831Z,19.52
2016-05-11T12:47:55.844Z,19.42
2016-05-11T12:48:55.853Z,19.13
2016-05-11T12:49:55.862Z,19.03
2016-05-11T12:50:55.855Z,19.42
2016-05-11T12:51:55.864Z,19.52
2016-05-11T12:52:55.870Z,19.13
2016-05-11T12:53:55.875Z,18.93
2016-05-11T12:54:55.879Z,18.65
2016-05-11T12:55:55.884Z,18.75